• Join FlightAware (Why Join?)
  • Login
  • US Flag 
 
04:40AM EST


 

Airport Tracker/Info


-or-


 

Live Flight TrackerFlight Track Log ✈ ASQ5740 ✈ 26-Sep-2013 ✈ KGSP - KIAD

Flight Track Log - Related Links

Times and Time Zones

All times are in EDT time to prevent confusion due to time zone crossing. See the ASQ5740 flight status page for this flight to view local times or setup timezone preferences in your user account.

Time Position Orientation Groundspeed Altitude Reporting Facility
EDT Latitude Longitude Course Direction KTS MPH feet Rate Location/Type
03:02PM 34.9631 -82.0239 85° East 285 328 7,500  Level Atlanta Center
03:03PM 35.1996 -81.8860 North  Level Estimated
03:03PM 35.0142 -81.9592 46° Northeast 266 306 10,000  Level Atlanta Center
03:04PM 35.2754 -81.8024 North  Level Estimated
03:04PM 35.0889 -81.9344 15° North 273 314 11,200  Level Atlanta Center
03:05PM 35.3512 -81.7186 80° East  Level Estimated
03:05PM 35.1850 -81.9372 359° North 299 344 12,500  Level Atlanta Center
03:06PM 35.2706 -81.9375 360° North 336 387 13,800 1,440 Climbing Atlanta Center
03:07PM 35.3358 -81.8492 48° Northeast 310 357 15,400 1,620 Climbing Atlanta Center
03:08PM 35.3794 -81.7361 65° Northeast 338 389 17,100 1,620 Climbing Atlanta Center
03:09PM 35.4233 -81.6228 65° Northeast 355 409 18,700 1,560 Climbing Atlanta Center
03:10PM 35.4650 -81.5144 65° Northeast 355 409 20,300 1,320 Climbing Atlanta Center
03:11PM 35.5083 -81.4008 65° Northeast 355 409 21,400 900 Climbing Atlanta Center
03:12PM 35.5439 -81.3000 67° East 361 415 22,200 1,020 Climbing Atlanta Center
03:13PM 35.6008 -81.1500 65° Northeast 384 442 23,500 1,020 Climbing Atlanta Center
03:14PM 35.6442 -81.0436 63° Northeast 384 442 24,300 720 Climbing Atlanta Center
03:15PM 35.6892 -80.9244 65° Northeast 389 448 25,000 300 Climbing Atlanta Center
03:16PM 35.7381 -80.7972 65° Northeast 394 453 25,000  Level Atlanta Center
03:17PM 35.7908 -80.6647 64° Northeast 412 474 25,000 600 Level Atlanta Center
03:18PM 35.8392 -80.5294 66° East 423 487 26,200 960 Climbing Atlanta Center
03:19PM 35.8914 -80.3861 66° East 423 487 27,000 360 Climbing Atlanta Center
03:20PM 35.9394 -80.2533 66° East 423 487 27,000  Level Atlanta Center
03:21PM 35.9914 -80.1172 65° Northeast 423 487 27,000  Level Atlanta Center
03:23PM 36.1131 -79.8653 59° Northeast 441 507 27,000  Level Washington Center
03:24PM 36.1756 -79.7503 56° Northeast 451 519 27,000  Level Washington Center
03:25PM 36.2533 -79.6103 55° Northeast 451 519 27,000  Level Washington Center
03:26PM 36.3178 -79.4950 55° Northeast 451 519 27,000  Level Washington Center
03:27PM 36.3886 -79.3694 55° Northeast 446 513 27,000  Level Washington Center
03:28PM 36.4594 -79.2411 56° Northeast 451 519 27,000  Level Washington Center
03:29PM 36.5342 -79.1153 54° Northeast 457 526 27,000 -300 Level Washington Center
03:30PM 36.6067 -78.9842 55° Northeast 451 519 26,400 -900 Descending Washington Center
03:31PM 36.6836 -78.8397 56° Northeast 451 519 25,300 -720 Descending Washington Center
03:32PM 36.7472 -78.7233 56° Northeast 451 519 25,000 -180 Descending Washington Center
03:33PM 36.8311 -78.6256 43° Northeast 435 501 25,000  Level Washington Center
03:34PM 36.9150 -78.5300 42° Northeast 412 474 25,000  Level Washington Center
03:35PM 37.0031 -78.4294 42° Northeast 407 468 25,000  Level Washington Center
03:36PM 37.0972 -78.3233 42° Northeast 412 474 25,000  Level Washington Center
03:37PM 37.1850 -78.2247 42° Northeast 412 474 25,000  Level Washington Center
03:38PM 37.2597 -78.1386 43° Northeast 412 474 25,000 -540 Level Washington Center
03:39PM 37.3408 -78.0475 42° Northeast 402 463 24,000 -1,020 Descending Washington Center
03:40PM 37.4242 -77.9506 43° Northeast 402 463 23,000 -1,020 Descending Washington Center
03:41PM 37.5053 -77.8564 43° Northeast 402 463 22,000 -660 Descending Washington Center
03:42PM 37.6006 -77.7858 30° Northeast 396 456 21,700 -1,020 Descending Washington Center
03:43PM 37.6997 -77.7283 25° Northeast 391 450 20,000 -1,860 Descending Washington Center
03:44PM 37.7944 -77.6731 25° Northeast 376 433 18,000 -2,040 Descending Washington Center
03:45PM 37.8869 -77.6203 24° Northeast 366 421 15,900 -2,100 Descending Washington Center
03:46PM 37.9733 -77.5675 26° Northeast 355 409 13,900 -2,160 Descending Washington Center
03:47PM 38.0661 -77.5169 23° Northeast 343 395 11,700 -1,980 Descending Washington Center
03:48PM 38.1461 -77.4689 25° Northeast 324 373 10,000 -900 Descending Washington Center
03:49PM 38.2156 -77.4283 25° Northeast 292 336 10,000 -300 Level Washington Center
03:50PM 38.2883 -77.4303 359° North 256 295 9,400 -780 Descending Washington Center
03:51PM 38.3444 -77.4581 339° North 256 295 8,500 -1,140 Descending Washington Center
03:52PM 38.4275 -77.4708 353° North 250 288 7,200 -780 Descending Washington Center
03:53PM 38.4942 -77.4697 North 250 288 7,000 -120 Descending Washington Center
03:54PM 38.5611 -77.4689 North 245 282 7,000  Level Washington Center
03:55PM 38.6236 -77.4678 North 233 268 7,000 -660 Level Washington Center
03:56PM 38.6717 -77.4664 North 201 231 5,700 -1,140 Descending Washington Center
03:58PM 38.7333 -77.4667 360° North 171 197 4,300 -1,020 Descending Potomac TRACON
03:59PM 38.7833 -77.4667 360° North 176 203 3,300 -1,020 Descending Potomac TRACON
03:59PM 38.8333 -77.4667 360° North 177 204 2,400 -900 Descending Potomac TRACON
04:00PM 38.8833 -77.4667 360° North 154 177 1,600 -840 Descending Potomac TRACON
04:01PM 38.9167 -77.4667 360° North 141 162 800 -840 Descending Potomac TRACON